createdAt,value
2022-10-01T00:02:00.485Z,99466.47
2022-10-01T00:04:28.390Z,99470.09
2022-10-01T00:06:55.570Z,99453.59
2022-10-01T00:09:22.706Z,99467.72
2022-10-01T00:11:49.695Z,99462.50
2022-10-01T00:14:17.539Z,99459.97
2022-10-01T00:16:44.585Z,99447.00
2022-10-01T00:19:15.202Z,99431.22
2022-10-01T00:21:42.868Z,99440.00
2022-10-01T00:24:14.783Z,99453.13
2022-10-01T00:26:42.694Z,99423.31
2022-10-01T00:29:14.613Z,99423.34
2022-10-01T00:31:42.529Z,99464.53
2022-10-01T00:34:13.611Z,99457.66
2022-10-01T00:36:42.314Z,99453.25
2022-10-01T00:39:11.480Z,99456.00
2022-10-01T00:41:38.706Z,99424.66
2022-10-01T00:44:27.554Z,99463.19
2022-10-01T00:46:59.727Z,99428.38
2022-10-01T00:49:29.690Z,99419.63
2022-10-01T00:52:05.398Z,99435.38
2022-10-01T00:54:41.500Z,99417.91
2022-10-01T00:57:10.723Z,99452.91
2022-10-01T00:59:38.323Z,99438.97
2022-10-01T01:02:05.479Z,99446.81
2022-10-01T01:04:32.887Z,99447.66
2022-10-01T01:07:02.467Z,99428.44
2022-10-01T01:09:37.064Z,99320.03
2022-10-01T01:12:26.107Z,99443.91
2022-10-01T01:15:10.470Z,99432.59
2022-10-01T01:17:56.341Z,99458.81
2022-10-01T01:20:47.974Z,99403.69
2022-10-01T01:23:15.033Z,99456.19
2022-10-01T01:25:53.340Z,99459.72
2022-10-01T01:28:31.692Z,99452.59
2022-10-01T01:31:08.395Z,99421.16
2022-10-01T01:33:39.093Z,99449.06
2022-10-01T01:36:16.442Z,99432.47
2022-10-01T01:38:50.030Z,99444.72
2022-10-01T01:41:20.437Z,99422.91
2022-10-01T01:43:51.415Z,99442.22
2022-10-01T01:46:20.212Z,99439.59
2022-10-01T01:48:51.633Z,99412.47
2022-10-01T01:51:26.215Z,99446.56
2022-10-01T01:53:54.778Z,99442.28
2022-10-01T01:56:22.191Z,99442.22
2022-10-01T01:58:49.267Z,99433.53
2022-10-01T02:01:42.678Z,99422.13
2022-10-01T02:04:54.942Z,99403.75
2022-10-01T02:07:37.590Z,99435.22
2022-10-01T02:10:17.576Z,99420.28
2022-10-01T02:12:47.552Z,99429.94
2022-10-01T02:15:27.677Z,99429.00
2022-10-01T02:18:06.919Z,99427.22
2022-10-01T02:20:46.231Z,99423.72
2022-10-01T02:23:17.599Z,99417.50
2022-10-01T02:25:49.284Z,99414.84
2022-10-01T02:28:21.542Z,99410.44
2022-10-01T02:30:51.581Z,99420.97
2022-10-01T02:33:25.025Z,99417.44
2022-10-01T02:35:56.333Z,99393.81
2022-10-01T02:38:25.033Z,99385.81
2022-10-01T02:40:57.626Z,99390.09
2022-10-01T02:43:54.129Z,99392.69
2022-10-01T02:46:28.562Z,99375.38
2022-10-01T02:48:57.564Z,99391.94
2022-10-01T02:51:43.549Z,99391.03
2022-10-01T02:54:27.025Z,99397.16
2022-10-01T02:57:13.747Z,99397.09
2022-10-01T02:59:40.861Z,99389.25
2022-10-01T03:02:08.248Z,99370.03
2022-10-01T03:04:35.271Z,99365.69
2022-10-01T03:07:04.483Z,99376.09
2022-10-01T03:09:32.289Z,99382.22
2022-10-01T03:12:00.337Z,99376.09
2022-10-01T03:14:28.493Z,99374.38
2022-10-01T03:16:55.649Z,99387.59
2022-10-01T03:19:22.689Z,99398.03
2022-10-01T03:21:49.784Z,99405.94
2022-10-01T03:24:17.395Z,99363.16
2022-10-01T03:26:45.309Z,99383.97
2022-10-01T03:29:13.634Z,99395.34
2022-10-01T03:31:41.234Z,99392.75
2022-10-01T03:34:08.784Z,99345.59
2022-10-01T03:36:35.932Z,99384.94
2022-10-01T03:39:03.931Z,99356.97
2022-10-01T03:41:31.664Z,99389.31
2022-10-01T03:44:00.686Z,99398.16
2022-10-01T03:46:28.276Z,99380.63
2022-10-01T03:48:57.758Z,99402.63
2022-10-01T03:51:24.779Z,99377.31
2022-10-01T03:53:52.294Z,99394.72
2022-10-01T03:56:19.831Z,99387.69
2022-10-01T03:58:47.079Z,99377.16
2022-10-01T04:01:14.930Z,99380.69
2022-10-01T04:03:44.025Z,99386.03
2022-10-01T04:06:11.669Z,99388.63
2022-10-01T04:08:39.179Z,99362.47
2022-10-01T04:11:07.764Z,99385.22
2022-10-01T04:13:35.735Z,99396.56
2022-10-01T04:16:04.093Z,99358.13
2022-10-01T04:18:32.444Z,99387.88
2022-10-01T04:20:59.527Z,99401.03
2022-10-01T04:23:26.859Z,99387.88
2022-10-01T04:25:54.086Z,99360.75
2022-10-01T04:28:21.341Z,99394.88
2022-10-01T04:30:48.875Z,99391.34
2022-10-01T04:33:17.175Z,99387.88
2022-10-01T04:35:44.394Z,99386.13
2022-10-01T04:38:15.836Z,99390.66
2022-10-01T04:40:43.768Z,99412.66
2022-10-01T04:43:13.385Z,99407.41
2022-10-01T04:45:40.481Z,99393.50
2022-10-01T04:48:07.461Z,99397.03
2022-10-01T04:50:35.491Z,99407.50
2022-10-01T04:53:03.207Z,99406.69
2022-10-01T04:55:30.207Z,99376.06
2022-10-01T04:57:57.238Z,99397.91
2022-10-01T05:00:26.539Z,99361.22
2022-10-01T05:02:53.996Z,99411.06
2022-10-01T05:05:24.114Z,99392.56
2022-10-01T05:07:51.430Z,99383.88
2022-10-01T05:10:21.590Z,99406.44
2022-10-01T05:12:51.803Z,99400.19
2022-10-01T05:15:19.595Z,99393.19
2022-10-01T05:17:47.622Z,99393.00
2022-10-01T05:20:21.719Z,99398.22
2022-10-01T05:22:52.168Z,99396.44
2022-10-01T05:25:20.606Z,99393.78
2022-10-01T05:27:48.324Z,99364.88
2022-10-01T05:30:24.456Z,99385.97
2022-10-01T05:33:00.718Z,99392.91
2022-10-01T05:35:28.012Z,99380.59
2022-10-01T05:38:02.998Z,99381.47
2022-10-01T05:40:30.815Z,99378.72
2022-10-01T05:42:59.740Z,99377.75
2022-10-01T05:45:31.348Z,99370.72
2022-10-01T05:48:01.140Z,99366.28
2022-10-01T05:50:31.731Z,99375.88
2022-10-01T05:52:59.852Z,99366.16
2022-10-01T05:55:31.966Z,99376.63
2022-10-01T05:58:13.271Z,99354.63
2022-10-01T06:00:43.074Z,99331.03
2022-10-01T06:03:15.928Z,99358.81
2022-10-01T06:05:44.984Z,99360.56
2022-10-01T06:08:13.329Z,99349.09
2022-10-01T06:10:41.525Z,99349.09
2022-10-01T06:13:08.566Z,99346.41
2022-10-01T06:15:38.619Z,99330.78
2022-10-01T06:18:12.549Z,99323.75
2022-10-01T06:20:41.174Z,99323.75
2022-10-01T06:23:12.624Z,99353.34
2022-10-01T06:25:41.941Z,99341.84
2022-10-01T06:28:10.983Z,99348.75
2022-10-01T06:30:40.120Z,99338.94
2022-10-01T06:33:09.880Z,99349.44
2022-10-01T06:35:42.762Z,99324.78
2022-10-01T06:38:10.940Z,99324.06
2022-10-01T06:40:38.592Z,99328.53
2022-10-01T06:43:08.150Z,99333.72
2022-10-01T06:45:42.702Z,99336.38
2022-10-01T06:48:14.139Z,99310.19
2022-10-01T06:50:43.335Z,99340.84
2022-10-01T06:53:10.851Z,99316.25
2022-10-01T06:55:38.592Z,99331.16
2022-10-01T06:58:16.493Z,99333.81
2022-10-01T07:00:44.537Z,99323.28
2022-10-01T07:03:21.638Z,99332.03
2022-10-01T07:05:50.612Z,99326.69
2022-10-01T07:08:18.058Z,99296.91
2022-10-01T07:10:45.772Z,99315.97
2022-10-01T07:13:18.509Z,99315.16
2022-10-01T07:15:46.802Z,99309.13
2022-10-01T07:18:14.687Z,99309.88
2022-10-01T07:20:41.970Z,99307.16
2022-10-01T07:23:12.215Z,99286.22
2022-10-01T07:25:40.695Z,99285.28
2022-10-01T07:28:17.161Z,99307.88
2022-10-01T07:30:47.702Z,99276.25
2022-10-01T07:33:19.197Z,99264.16
2022-10-01T07:35:48.205Z,99303.25
2022-10-01T07:38:16.931Z,99305.25
2022-10-01T07:40:44.479Z,99242.47
2022-10-01T07:43:15.162Z,99300.78
2022-10-01T07:45:42.274Z,99297.13
2022-10-01T07:48:10.024Z,99293.50
2022-10-01T07:50:37.249Z,99290.66
2022-10-01T07:53:04.763Z,99259.84
2022-10-01T07:55:32.891Z,99279.75
2022-10-01T07:58:02.200Z,99268.13
2022-10-01T08:00:33.562Z,99253.25
2022-10-01T08:03:01.376Z,99239.34
2022-10-01T08:05:31.536Z,99233.94
2022-10-01T08:08:07.505Z,99266.19
2022-10-01T08:10:36.929Z,99257.88
2022-10-01T08:13:14.631Z,99233.19
2022-10-01T08:15:47.141Z,99253.34
2022-10-01T08:18:15.003Z,99237.22
2022-10-01T08:20:42.505Z,99245.13
2022-10-01T08:23:11.845Z,99239.81
2022-10-01T08:25:39.921Z,99243.06
2022-10-01T08:28:09.312Z,99228.78
2022-10-01T08:30:39.777Z,99237.31
2022-10-01T08:33:07.415Z,99230.19
2022-10-01T08:35:34.695Z,99223.09
2022-10-01T08:38:06.787Z,99202.38
2022-10-01T08:40:39.331Z,99190.97
2022-10-01T08:43:12.751Z,99178.69
2022-10-01T08:45:46.197Z,99207.25
2022-10-01T08:48:35.237Z,99209.88
2022-10-01T08:51:26.608Z,99178.63
2022-10-01T08:53:59.991Z,99194.16
2022-10-01T08:56:40.829Z,99190.31
2022-10-01T08:59:40.682Z,99193.63
2022-10-01T09:02:30.077Z,99200.75
2022-10-01T09:05:04.919Z,99176.41
2022-10-01T09:08:24.798Z,99196.13
2022-10-01T09:11:07.330Z,99174.09
2022-10-01T09:14:12.726Z,99185.88
2022-10-01T09:17:25.577Z,99195.41
2022-10-01T09:20:16.594Z,99191.25
2022-10-01T09:23:12.385Z,99188.53
2022-10-01T09:25:41.442Z,99177.09
2022-10-01T09:28:16.482Z,99154.53
2022-10-01T09:31:09.133Z,99174.75
2022-10-01T09:33:44.380Z,99174.75
2022-10-01T09:36:16.979Z,99164.22
2022-10-01T09:39:22.296Z,99153.81
2022-10-01T09:41:49.958Z,99167.81
2022-10-01T09:44:23.135Z,99165.97
2022-10-01T09:46:50.209Z,99167.72
2022-10-01T09:49:25.768Z,99152.00
2022-10-01T09:51:58.787Z,99147.09
2022-10-01T09:54:43.756Z,99142.59
2022-10-01T09:57:22.300Z,99128.47
2022-10-01T10:00:03.141Z,99121.16
2022-10-01T10:02:36.543Z,99125.16
2022-10-01T10:05:06.323Z,99127.69
2022-10-01T10:07:35.385Z,99117.72
2022-10-01T10:10:25.525Z,99101.50
2022-10-01T10:13:04.344Z,99104.91
2022-10-01T10:15:33.355Z,99104.75
2022-10-01T10:18:09.293Z,99109.25
2022-10-01T10:20:43.710Z,99098.59
2022-10-01T10:23:22.322Z,99106.53
2022-10-01T10:25:57.709Z,99109.19
2022-10-01T10:28:26.075Z,99069.84
2022-10-01T10:30:55.355Z,99099.38
2022-10-01T10:33:27.615Z,99097.84
2022-10-01T10:36:23.323Z,99104.28
2022-10-01T10:38:53.853Z,99077.44
2022-10-01T10:41:26.555Z,99108.72
2022-10-01T10:43:57.884Z,98986.84
2022-10-01T10:46:29.840Z,99019.03
2022-10-01T10:49:06.750Z,99005.97
2022-10-01T10:51:56.026Z,99064.06
2022-10-01T10:54:37.795Z,99097.09
2022-10-01T10:57:31.368Z,99096.19
2022-10-01T11:00:17.466Z,99013.31
2022-10-01T11:03:00.373Z,99068.75
2022-10-01T11:05:32.278Z,99076.31
2022-10-01T11:08:08.532Z,99080.41
2022-10-01T11:10:38.777Z,99064.94
2022-10-01T11:13:52.856Z,99071.75
2022-10-01T11:17:10.298Z,99075.56
2022-10-01T11:20:04.516Z,99060.06
2022-10-01T11:23:16.660Z,99060.53
2022-10-01T11:26:03.385Z,99048.50
2022-10-01T11:28:56.295Z,99042.19
2022-10-01T11:31:32.054Z,98981.63
2022-10-01T11:34:06.121Z,99038.28
2022-10-01T11:36:39.787Z,99036.31
2022-10-01T11:39:19.188Z,98984.91
2022-10-01T11:41:57.419Z,99026.41
2022-10-01T11:45:14.562Z,99026.13
2022-10-01T11:47:54.948Z,98929.69
2022-10-01T11:50:28.167Z,98899.66
2022-10-01T11:53:19.292Z,99018.78
2022-10-01T11:56:13.541Z,99026.31
2022-10-01T11:59:09.927Z,99020.47
2022-10-01T12:01:50.541Z,98949.75
2022-10-01T12:04:42.518Z,99016.56
2022-10-01T12:07:15.733Z,98974.09
2022-10-01T12:10:12.060Z,99006.25
2022-10-01T12:12:47.586Z,99005.00
2022-10-01T12:15:23.206Z,98994.41
2022-10-01T12:17:56.737Z,98970.28
2022-10-01T12:20:48.541Z,98982.16
2022-10-01T12:23:22.001Z,98968.47
2022-10-01T12:25:49.652Z,98992.69
2022-10-01T12:28:26.199Z,98931.41
2022-10-01T12:31:07.963Z,98968.47
2022-10-01T12:34:10.186Z,98971.81
2022-10-01T12:36:42.922Z,98981.44
2022-10-01T12:39:54.471Z,98972.22
2022-10-01T12:42:48.904Z,98948.78
2022-10-01T12:45:40.230Z,98979.34
2022-10-01T12:48:38.323Z,98964.13
2022-10-01T12:51:37.221Z,98956.72
2022-10-01T12:54:21.346Z,98956.09
2022-10-01T12:57:03.873Z,98958.50
2022-10-01T12:59:52.910Z,98957.50
2022-10-01T13:02:58.399Z,98961.31
2022-10-01T13:05:35.361Z,98956.00
2022-10-01T13:08:17.520Z,98950.69
2022-10-01T13:10:54.419Z,98939.00
2022-10-01T13:13:33.000Z,98922.56
2022-10-01T13:16:32.730Z,98928.69
2022-10-01T13:19:03.817Z,98928.56
2022-10-01T13:21:56.176Z,98929.56
2022-10-01T13:24:56.354Z,98920.69
2022-10-01T13:27:31.547Z,98927.91
2022-10-01T13:30:24.845Z,98917.06
2022-10-01T13:32:54.033Z,98906.66
2022-10-01T13:35:35.791Z,98919.44
2022-10-01T13:38:31.408Z,98916.09
2022-10-01T13:41:01.262Z,98893.38
2022-10-01T13:43:30.613Z,98919.81
2022-10-01T13:46:07.254Z,98907.50
2022-10-01T13:48:37.191Z,98921.00
2022-10-01T13:51:09.332Z,98918.22
2022-10-01T13:53:42.669Z,98917.91
2022-10-01T13:56:15.585Z,98924.69
2022-10-01T13:58:44.828Z,98897.72
2022-10-01T14:01:17.758Z,98908.34
2022-10-01T14:03:59.598Z,98916.38
2022-10-01T14:06:58.972Z,98918.41
2022-10-01T14:09:42.750Z,98920.38
2022-10-01T14:12:43.739Z,98885.56
2022-10-01T14:15:59.318Z,98894.84
2022-10-01T14:18:48.671Z,98886.81
2022-10-01T14:21:46.231Z,98845.03
2022-10-01T14:24:31.924Z,98880.44
2022-10-01T14:27:11.260Z,98873.31
2022-10-01T14:29:57.878Z,98860.41
2022-10-01T14:32:42.857Z,98838.63
2022-10-01T14:35:25.844Z,98857.72
2022-10-01T14:38:00.664Z,98833.66
2022-10-01T14:40:40.040Z,98837.88
2022-10-01T14:43:19.235Z,98860.75
2022-10-01T14:46:07.487Z,98834.94
2022-10-01T14:52:36.791Z,98789.63
2022-10-01T14:55:07.567Z,98828.84
2022-10-01T14:57:45.210Z,98845.25
2022-10-01T15:00:18.850Z,98806.97
2022-10-01T15:02:52.628Z,98820.88
2022-10-01T15:05:29.177Z,98814.84
2022-10-01T15:08:35.905Z,98837.50
2022-10-01T15:11:07.466Z,98805.44
2022-10-01T15:13:38.829Z,98825.22
2022-10-01T15:16:13.607Z,98788.00
2022-10-01T15:18:49.175Z,98772.38
2022-10-01T15:21:25.904Z,98789.69
2022-10-01T15:27:09.011Z,98668.09
2022-10-01T15:33:10.772Z,98668.41
2022-10-01T15:36:15.984Z,98640.72
2022-10-01T15:38:58.387Z,98739.47
2022-10-01T15:41:34.333Z,98736.00
2022-10-01T15:44:50.836Z,98635.50
2022-10-01T15:51:52.037Z,98757.13
2022-10-01T15:54:59.672Z,98711.97
2022-10-01T16:01:09.617Z,98749.16
2022-10-01T16:04:30.386Z,98760.72
2022-10-01T16:07:56.454Z,98672.53
2022-10-01T16:11:07.359Z,98605.75
2022-10-01T16:17:28.776Z,98743.38
2022-10-01T16:20:18.567Z,98731.09
2022-10-01T16:22:46.251Z,98660.94
2022-10-01T16:25:29.217Z,98728.31
2022-10-01T16:28:04.301Z,98701.47
2022-10-01T16:30:34.052Z,98729.25
2022-10-01T16:33:04.934Z,98602.59
2022-10-01T16:41:34.269Z,98559.00
2022-10-01T16:44:14.459Z,98580.13
2022-10-01T16:46:56.941Z,98631.94
2022-10-01T16:50:18.330Z,98540.16
2022-10-01T16:52:46.186Z,98626.59
2022-10-01T16:55:38.740Z,98598.78
2022-10-01T16:58:07.726Z,98651.06
2022-10-01T17:00:37.449Z,98672.81
2022-10-01T17:03:09.683Z,98662.31
2022-10-01T17:05:37.902Z,98660.59
2022-10-01T17:08:44.409Z,98575.53
2022-10-01T17:11:34.581Z,98592.09
2022-10-01T17:14:18.542Z,98507.78
2022-10-01T17:16:52.290Z,98568.94
2022-10-01T17:22:59.530Z,98497.56
2022-10-01T17:25:39.340Z,98524.25
2022-10-01T17:28:58.661Z,98475.84
2022-10-01T17:35:27.196Z,98501.94
2022-10-01T17:38:19.588Z,98519.28
2022-10-01T17:41:24.282Z,98452.31
2022-10-01T17:44:18.575Z,98585.72
2022-10-01T17:47:15.118Z,98481.91
2022-10-01T17:57:10.739Z,98508.78
2022-10-01T18:00:09.410Z,98546.66
2022-10-01T18:02:42.635Z,98455.78
2022-10-01T18:05:18.721Z,98509.63
2022-10-01T18:08:00.878Z,98491.47
2022-10-01T18:10:54.259Z,98491.25
2022-10-01T18:14:30.836Z,98532.59
2022-10-01T18:20:05.960Z,98414.59
2022-10-01T18:23:03.854Z,98505.31
2022-10-01T18:25:57.284Z,98438.63
2022-10-01T18:28:36.056Z,98461.59
2022-10-01T18:31:39.184Z,98431.28
2022-10-01T18:37:56.946Z,98442.31
2022-10-01T18:40:39.640Z,98462.22
2022-10-01T18:43:14.744Z,98475.94
2022-10-01T18:46:33.813Z,98482.25
2022-10-01T18:49:30.522Z,98470.97
2022-10-01T18:52:12.671Z,98469.34
2022-10-01T18:54:42.455Z,98467.56
2022-10-01T18:57:31.312Z,98465.78
2022-10-01T19:00:05.428Z,98471.91
2022-10-01T19:03:06.047Z,98469.25
2022-10-01T19:06:10.572Z,98456.94
2022-10-01T19:09:02.058Z,98459.63
2022-10-01T19:11:44.521Z,98460.47
2022-10-01T19:14:36.570Z,98496.72
2022-10-01T19:17:06.613Z,98473.91
2022-10-01T19:19:48.725Z,98478.22
2022-10-01T19:22:24.896Z,98467.53
2022-10-01T19:25:18.444Z,98383.56
2022-10-01T19:27:52.188Z,98456.69
2022-10-01T19:30:22.591Z,98454.00
2022-10-01T19:32:59.837Z,98439.81
2022-10-01T19:35:32.296Z,98439.19
2022-10-01T19:38:15.186Z,98426.22
2022-10-01T19:40:53.805Z,98433.97
2022-10-01T19:43:42.640Z,98432.25
2022-10-01T19:46:18.023Z,98436.75
2022-10-01T19:48:55.046Z,98405.47
2022-10-01T19:51:25.079Z,98420.47
2022-10-01T19:54:00.512Z,98422.97
2022-10-01T19:56:31.215Z,98421.31
2022-10-01T19:59:14.947Z,98409.09
2022-10-01T20:01:52.053Z,98360.59
2022-10-01T20:04:40.524Z,98351.31
2022-10-01T20:07:20.855Z,98380.59
2022-10-01T20:10:13.057Z,98400.47
2022-10-01T20:12:58.580Z,98397.78
2022-10-01T20:15:52.754Z,98383.72
2022-10-01T20:18:29.033Z,98374.97
2022-10-01T20:21:08.352Z,98383.94
2022-10-01T20:24:07.705Z,98368.06
2022-10-01T20:26:44.541Z,98359.44
2022-10-01T20:29:43.747Z,98364.59
2022-10-01T20:32:19.176Z,98364.72
2022-10-01T20:34:50.192Z,98368.41
2022-10-01T20:37:36.529Z,98319.78
2022-10-01T20:40:28.822Z,98352.63
2022-10-01T20:43:14.536Z,98347.66
2022-10-01T20:45:43.580Z,98351.09
2022-10-01T20:48:31.960Z,98351.41
2022-10-01T20:51:09.913Z,98356.50
2022-10-01T20:53:47.029Z,98336.41
2022-10-01T20:56:23.281Z,98352.94
2022-10-01T20:58:56.706Z,98329.50
2022-10-01T21:01:27.120Z,98321.63
2022-10-01T21:04:01.732Z,98287.81
2022-10-01T21:06:38.897Z,98348.44
2022-10-01T21:09:18.159Z,98318.97
2022-10-01T21:11:50.097Z,98323.47
2022-10-01T21:14:29.085Z,98346.63
2022-10-01T21:17:11.507Z,98343.06
2022-10-01T21:20:12.622Z,98350.91
2022-10-01T21:23:21.542Z,98348.25
2022-10-01T21:25:59.191Z,98345.59
2022-10-01T21:29:11.460Z,98341.28
2022-10-01T21:32:05.136Z,98338.69
2022-10-01T21:34:55.568Z,98341.44
2022-10-01T21:37:31.870Z,98328.38
2022-10-01T21:40:31.197Z,98334.47
2022-10-01T21:43:25.436Z,98346.03
2022-10-01T21:46:09.915Z,98340.78
2022-10-01T21:48:49.769Z,98353.28
2022-10-01T21:51:24.116Z,98327.22
2022-10-01T21:54:36.184Z,98343.72
2022-10-01T21:57:32.056Z,98300.59
2022-10-01T22:00:12.166Z,98305.94
2022-10-01T22:02:39.354Z,98349.28
2022-10-01T22:05:12.254Z,98339.66
2022-10-01T22:08:09.649Z,98336.72
2022-10-01T22:10:44.427Z,98325.00
2022-10-01T22:13:19.296Z,98343.59
2022-10-01T22:15:49.460Z,98359.25
2022-10-01T22:18:40.116Z,98355.03
2022-10-01T22:21:13.447Z,98371.69
2022-10-01T22:23:50.286Z,98355.25
2022-10-01T22:26:22.700Z,98367.41
2022-10-01T22:28:55.383Z,98335.59
2022-10-01T22:31:27.628Z,98339.06
2022-10-01T22:34:05.708Z,98371.09
2022-10-01T22:36:58.826Z,98349.34
2022-10-01T22:39:32.378Z,98360.97
2022-10-01T22:42:07.367Z,98360.94
2022-10-01T22:44:34.418Z,98325.22
2022-10-01T22:47:29.580Z,98384.50
2022-10-01T22:50:37.192Z,98344.75
2022-10-01T22:53:23.113Z,98378.47
2022-10-01T22:55:55.201Z,98396.97
2022-10-01T22:58:41.271Z,98379.31
2022-10-01T23:01:38.567Z,98386.44
2022-10-01T23:04:15.175Z,98358.06
2022-10-01T23:07:00.869Z,98390.09
2022-10-01T23:09:38.190Z,98386.66
2022-10-01T23:12:08.096Z,98397.22
2022-10-01T23:15:06.074Z,98393.84
2022-10-01T23:17:54.311Z,98346.38
2022-10-01T23:20:33.103Z,98381.84
2022-10-01T23:23:12.700Z,98376.56
2022-10-01T23:26:01.926Z,98385.44
2022-10-01T23:28:34.963Z,98389.06
2022-10-01T23:31:16.099Z,98382.13
2022-10-01T23:34:11.308Z,98384.91
2022-10-01T23:36:53.635Z,98360.59
2022-10-01T23:39:27.006Z,98384.22
2022-10-01T23:42:00.305Z,98377.22
2022-10-01T23:44:36.419Z,98383.47
2022-10-01T23:47:10.036Z,98388.00
2022-10-01T23:49:49.686Z,98386.41
2022-10-01T23:52:48.372Z,98390.03
2022-10-01T23:55:46.877Z,98374.47
2022-10-01T23:58:16.044Z,98380.63
